Time;durP1;ratioP1;P1;durP2;ratioP2;P2;SDS_P1;SDS_P2;PMS_P1;PMS_P2;Temp;Humidity;BMP_temperature;BMP_pressure;BME280_temperature;BME280_humidity;BME280_pressure;Samples;Min_cycle;Max_cycle;Signal;HPM_P1;HPM_P2
2024/01/22 00:01:44;;;;;;;10.45;3.95;;;;;;;;;;5013766;28;20026;-62
2024/01/22 00:04:10;;;;;;;7.13;3.75;;;;;;;;;;5010049;28;20116;-61
2024/01/22 00:06:39;;;;;;;5.68;3.08;;;;;;;;;;5017629;28;20025;-59
2024/01/22 00:09:05;;;;;;;14.95;3.40;;;;;;;;;;5009367;28;20488;-61
2024/01/22 00:11:31;;;;;;;9.25;3.10;;;;;;;;;;5006175;28;20035;-62
2024/01/22 00:13:57;;;;;;;7.18;3.15;;;;;;;;;;5013685;28;20109;-61
2024/01/22 00:16:24;;;;;;;6.32;3.30;;;;;;;;;;5009965;28;20034;-61
2024/01/22 00:18:50;;;;;;;6.53;3.22;;;;;;;;;;5013752;28;20022;-62
2024/01/22 00:21:16;;;;;;;13.60;3.65;;;;;;;;;;5022017;28;20025;-63
2024/01/22 00:23:42;;;;;;;10.48;3.05;;;;;;;;;;5017487;28;20048;-60
2024/01/22 00:26:13;;;;;;;5.10;2.90;;;;;;;;;;5018665;28;20029;-59
2024/01/22 00:28:40;;;;;;;6.03;2.90;;;;;;;;;;5011458;28;20022;-60
2024/01/22 00:31:06;;;;;;;3.78;2.35;;;;;;;;;;5016982;28;20076;-59
2024/01/22 00:33:32;;;;;;;9.82;2.85;;;;;;;;;;5014287;28;20037;-60
2024/01/22 00:35:58;;;;;;;8.32;2.85;;;;;;;;;;5016872;28;20029;-60
2024/01/22 00:38:24;;;;;;;5.00;2.35;;;;;;;;;;5016028;28;20057;-60
2024/01/22 00:40:50;;;;;;;8.60;2.95;;;;;;;;;;5012823;28;20543;-60
2024/01/22 00:43:16;;;;;;;6.90;2.22;;;;;;;;;;5018827;28;20105;-59
2024/01/22 00:45:42;;;;;;;8.93;2.50;;;;;;;;;;5015245;28;20022;-61
2024/01/22 00:48:08;;;;;;;10.80;2.13;;;;;;;;;;5020121;28;20492;-59
2024/01/22 00:50:34;;;;;;;8.95;2.53;;;;;;;;;;5015879;28;20032;-62
2024/01/22 00:52:59;;;;;;;5.22;2.80;;;;;;;;;;5019464;28;20030;-64
2024/01/22 00:55:25;;;;;;;4.85;2.10;;;;;;;;;;5018291;28;20061;-63
2024/01/22 00:57:52;;;;;;;9.65;2.08;;;;;;;;;;5017624;28;20040;-62
2024/01/22 01:00:18;;;;;;;5.57;1.77;;;;;;;;;;5016189;28;20041;-62
2024/01/22 01:02:44;;;;;;;9.23;2.05;;;;;;;;;;5017864;28;20034;-62
2024/01/22 01:05:10;;;;;;;3.75;1.55;;;;;;;;;;5018284;28;20040;-61
2024/01/22 01:07:36;;;;;;;6.78;2.40;;;;;;;;;;5016354;28;20026;-62
2024/01/22 01:10:03;;;;;;;6.45;1.83;;;;;;;;;;5022583;28;20033;-60
2024/01/22 01:12:28;;;;;;;4.80;1.80;;;;;;;;;;5016404;28;20037;-60
2024/01/22 01:14:54;;;;;;;2.50;1.67;;;;;;;;;;5013546;28;20034;-62
2024/01/22 01:17:20;;;;;;;5.15;2.15;;;;;;;;;;5016243;28;20033;-60
2024/01/22 01:19:46;;;;;;;5.63;1.98;;;;;;;;;;5016372;28;20122;-62
2024/01/22 01:22:12;;;;;;;5.05;1.73;;;;;;;;;;5017490;28;20037;-60
2024/01/22 01:24:38;;;;;;;5.63;1.83;;;;;;;;;;5021339;28;20369;-62
2024/01/22 01:27:04;;;;;;;3.58;1.77;;;;;;;;;;5016811;28;20037;-63
2024/01/22 01:29:30;;;;;;;1.85;1.45;;;;;;;;;;5013673;28;20252;-62
2024/01/22 01:31:56;;;;;;;4.38;2.05;;;;;;;;;;5015636;28;20543;-62
2024/01/22 01:34:22;;;;;;;7.88;1.58;;;;;;;;;;5017607;28;20493;-62
2024/01/22 01:36:48;;;;;;;6.75;1.80;;;;;;;;;;5014653;28;20041;-62
2024/01/22 01:39:14;;;;;;;4.22;1.73;;;;;;;;;;5016158;28;20030;-61
2024/01/22 01:41:40;;;;;;;2.92;1.52;;;;;;;;;;5014656;28;20037;-63
2024/01/22 01:44:06;;;;;;;3.33;1.58;;;;;;;;;;5019547;28;20026;-62
2024/01/22 01:46:32;;;;;;;4.30;1.48;;;;;;;;;;5016165;28;20022;-63
2024/01/22 01:48:58;;;;;;;3.67;1.92;;;;;;;;;;5016985;28;20034;-62
2024/01/22 01:51:25;;;;;;;6.55;1.80;;;;;;;;;;5014588;28;20231;-63
2024/01/22 01:53:52;;;;;;;4.20;1.35;;;;;;;;;;5015623;28;20392;-62
2024/01/22 01:56:18;;;;;;;3.08;1.38;;;;;;;;;;5014743;28;20030;-60
2024/01/22 01:58:44;;;;;;;5.93;1.90;;;;;;;;;;5018271;28;20033;-63
2024/01/22 02:01:10;;;;;;;9.30;1.70;;;;;;;;;;5017328;28;21993;-63
2024/01/22 02:03:36;;;;;;;4.10;1.50;;;;;;;;;;5011425;28;20123;-63
2024/01/22 02:06:02;;;;;;;5.82;1.40;;;;;;;;;;5016365;28;20512;-63
2024/01/22 02:08:28;;;;;;;3.88;1.55;;;;;;;;;;5014484;28;20105;-63
2024/01/22 02:10:54;;;;;;;7.32;1.40;;;;;;;;;;5018140;28;20018;-63
2024/01/22 02:13:20;;;;;;;7.03;1.65;;;;;;;;;;5018676;28;20036;-64
2024/01/22 02:15:46;;;;;;;3.55;1.40;;;;;;;;;;5009547;28;20021;-62
2024/01/22 02:18:12;;;;;;;3.30;1.65;;;;;;;;;;5011008;28;20125;-64
2024/01/22 02:20:38;;;;;;;2.47;1.65;;;;;;;;;;5008560;28;20033;-61
2024/01/22 02:23:05;;;;;;;2.03;1.10;;;;;;;;;;5010239;28;20044;-63
2024/01/22 02:25:31;;;;;;;1.65;1.10;;;;;;;;;;5009471;28;20041;-60
2024/01/22 02:27:57;;;;;;;2.70;1.13;;;;;;;;;;5011668;28;20093;-62
2024/01/22 02:30:23;;;;;;;5.57;1.40;;;;;;;;;;5017582;28;20030;-61
2024/01/22 02:32:49;;;;;;;3.13;1.17;;;;;;;;;;5013892;28;20045;-63
2024/01/22 02:35:15;;;;;;;4.97;1.30;;;;;;;;;;5009576;28;20033;-64
2024/01/22 02:37:41;;;;;;;7.07;1.40;;;;;;;;;;5014744;28;20025;-61
2024/01/22 02:40:07;;;;;;;4.22;1.45;;;;;;;;;;5020878;28;20049;-63
2024/01/22 02:42:34;;;;;;;4.05;1.58;;;;;;;;;;5014655;28;20037;-63
2024/01/22 02:45:00;;;;;;;3.58;1.25;;;;;;;;;;5012757;28;20049;-61
2024/01/22 02:47:26;;;;;;;2.22;1.10;;;;;;;;;;5009659;28;20026;-64
2024/01/22 02:49:52;;;;;;;8.15;1.20;;;;;;;;;;5016563;28;20030;-61
2024/01/22 02:52:18;;;;;;;5.10;1.27;;;;;;;;;;5011963;28;20033;-63
2024/01/22 02:54:44;;;;;;;1.58;1.30;;;;;;;;;;5018139;28;20032;-64
2024/01/22 02:57:11;;;;;;;2.63;1.17;;;;;;;;;;5011166;28;20021;-64
2024/01/22 02:59:37;;;;;;;3.70;1.30;;;;;;;;;;5020388;28;20492;-63
2024/01/22 03:02:03;;;;;;;2.92;1.33;;;;;;;;;;5008850;28;20038;-64
2024/01/22 03:04:29;;;;;;;5.32;1.42;;;;;;;;;;5009862;28;20026;-64
2024/01/22 03:06:56;;;;;;;5.03;1.42;;;;;;;;;;5011170;28;20026;-65
2024/01/22 03:09:22;;;;;;;3.60;1.20;;;;;;;;;;5011896;28;20022;-63
2024/01/22 03:11:48;;;;;;;5.88;1.60;;;;;;;;;;5008549;28;20060;-64
2024/01/22 03:14:14;;;;;;;2.70;1.10;;;;;;;;;;5013189;28;20033;-62
2024/01/22 03:16:40;;;;;;;3.20;1.40;;;;;;;;;;5005178;28;20404;-64
2024/01/22 03:19:06;;;;;;;1.83;1.00;;;;;;;;;;5003013;28;20392;-62
2024/01/22 03:21:32;;;;;;;2.40;1.38;;;;;;;;;;5007615;28;20045;-62
2024/01/22 03:23:58;;;;;;;2.17;1.00;;;;;;;;;;5012942;28;20096;-63
2024/01/22 03:26:24;;;;;;;2.70;1.17;;;;;;;;;;5007337;28;20041;-63
2024/01/22 03:28:50;;;;;;;9.55;1.48;;;;;;;;;;5012716;28;20084;-64
2024/01/22 03:31:22;;;;;;;1.05;0.90;;;;;;;;;;5015934;28;20435;-62
2024/01/22 03:33:48;;;;;;;2.58;1.00;;;;;;;;;;5015493;28;20109;-63
2024/01/22 03:36:14;;;;;;;3.78;1.13;;;;;;;;;;5011395;28;20166;-63
2024/01/22 03:38:40;;;;;;;3.25;1.30;;;;;;;;;;5007033;28;20042;-64
2024/01/22 03:41:06;;;;;;;3.85;1.13;;;;;;;;;;5012487;28;20022;-63
2024/01/22 03:43:32;;;;;;;2.78;1.00;;;;;;;;;;5014107;28;20365;-62
2024/01/22 03:45:58;;;;;;;1.33;0.65;;;;;;;;;;5012354;28;20428;-62
2024/01/22 03:48:24;;;;;;;1.88;0.90;;;;;;;;;;5008360;28;20443;-63
2024/01/22 03:50:51;;;;;;;1.77;0.95;;;;;;;;;;5014348;28;20550;-62
2024/01/22 03:53:17;;;;;;;2.45;0.73;;;;;;;;;;5019424;28;20079;-63
2024/01/22 03:55:42;;;;;;;6.90;0.85;;;;;;;;;;5015203;28;20034;-63
2024/01/22 03:58:09;;;;;;;1.15;0.70;;;;;;;;;;5012955;28;20029;-59
2024/01/22 04:00:34;;;;;;;1.73;0.80;;;;;;;;;;5016238;28;20137;-63
2024/01/22 04:03:00;;;;;;;2.45;0.73;;;;;;;;;;5013701;28;20113;-63
2024/01/22 04:05:26;;;;;;;1.48;0.90;;;;;;;;;;5013593;28;20034;-62
2024/01/22 04:07:52;;;;;;;1.45;0.65;;;;;;;;;;5017517;28;20476;-63
2024/01/22 04:10:18;;;;;;;3.10;0.70;;;;;;;;;;5015246;28;20440;-63
2024/01/22 04:12:44;;;;;;;0.95;0.52;;;;;;;;;;5010197;28;20493;-62
2024/01/22 04:15:10;;;;;;;2.38;0.47;;;;;;;;;;5012091;28;20041;-63
2024/01/22 04:17:36;;;;;;;0.47;0.47;;;;;;;;;;5013514;28;20100;-63
2024/01/22 04:20:03;;;;;;;0.75;0.50;;;;;;;;;;5017438;28;20034;-62
2024/01/22 04:22:29;;;;;;;0.93;0.60;;;;;;;;;;5015182;28;20030;-64
2024/01/22 04:24:55;;;;;;;1.30;0.52;;;;;;;;;;5011436;28;20467;-63
2024/01/22 04:27:21;;;;;;;1.73;0.70;;;;;;;;;;5015035;28;20045;-64
2024/01/22 04:29:47;;;;;;;4.35;0.80;;;;;;;;;;5017946;28;20025;-62
2024/01/22 04:32:13;;;;;;;2.20;0.57;;;;;;;;;;5015605;28;20048;-65
2024/01/22 04:34:39;;;;;;;0.55;0.55;;;;;;;;;;5022989;28;20034;-65
2024/01/22 04:37:06;;;;;;;2.33;0.70;;;;;;;;;;5015945;28;20026;-61
2024/01/22 04:39:32;;;;;;;1.77;0.50;;;;;;;;;;5010522;28;20431;-64
2024/01/22 04:41:58;;;;;;;0.50;0.50;;;;;;;;;;5017716;28;20022;-64
2024/01/22 04:44:24;;;;;;;8.10;0.80;;;;;;;;;;5021579;28;20427;-64
2024/01/22 04:46:50;;;;;;;7.32;0.82;;;;;;;;;;5012203;28;20503;-60
2024/01/22 04:49:15;;;;;;;4.00;0.70;;;;;;;;;;5010274;28;20026;-64
2024/01/22 04:51:45;;;;;;;8.40;0.85;;;;;;;;;;5013903;28;20033;-62
2024/01/22 04:54:11;;;;;;;2.33;0.95;;;;;;;;;;5021638;28;20059;-62
2024/01/22 04:56:44;;;;;;;3.85;0.90;;;;;;;;;;5007416;28;20022;-59
2024/01/22 04:59:10;;;;;;;4.78;0.90;;;;;;;;;;5008769;28;20042;-63
2024/01/22 05:01:36;;;;;;;8.57;0.90;;;;;;;;;;5014072;28;20041;-62
2024/01/22 05:04:02;;;;;;;6.28;0.88;;;;;;;;;;5009935;28;20037;-63
2024/01/22 05:06:28;;;;;;;1.45;1.10;;;;;;;;;;5009329;28;20026;-61
2024/01/22 05:08:54;;;;;;;4.78;0.98;;;;;;;;;;5013363;28;20399;-63
2024/01/22 05:11:20;;;;;;;2.50;1.02;;;;;;;;;;5011053;28;20045;-62
2024/01/22 05:13:49;;;;;;;5.10;1.40;;;;;;;;;;5016989;28;20030;-63
2024/01/22 05:16:16;;;;;;;1.58;0.80;;;;;;;;;;5012366;28;20578;-64
2024/01/22 05:18:42;;;;;;;1.45;0.70;;;;;;;;;;5012292;28;20113;-63
2024/01/22 05:21:08;;;;;;;1.27;0.80;;;;;;;;;;5012584;28;20116;-63
2024/01/22 05:23:33;;;;;;;3.40;0.80;;;;;;;;;;5020057;28;20026;-63
2024/01/22 05:25:59;;;;;;;2.03;0.88;;;;;;;;;;5014280;28;20032;-63
2024/01/22 05:28:26;;;;;;;2.65;0.55;;;;;;;;;;5009603;28;20053;-61
2024/01/22 05:30:53;;;;;;;0.86;0.54;;;;;;;;;;5009056;28;1035910;-62
2024/01/22 05:33:19;;;;;;;1.95;0.70;;;;;;;;;;5018816;28;20033;-60
2024/01/22 05:35:45;;;;;;;1.63;0.60;;;;;;;;;;5018473;28;20056;-63
2024/01/22 05:38:11;;;;;;;2.88;0.70;;;;;;;;;;5012068;28;20079;-62
2024/01/22 05:40:37;;;;;;;4.13;0.60;;;;;;;;;;5012567;28;20060;-63
2024/01/22 05:43:03;;;;;;;1.15;0.52;;;;;;;;;;5020089;28;20069;-64
2024/01/22 05:45:29;;;;;;;2.00;0.63;;;;;;;;;;5015955;28;20022;-61
2024/01/22 05:47:54;;;;;;;5.82;0.70;;;;;;;;;;5014294;28;20022;-61
2024/01/22 05:50:20;;;;;;;1.98;0.40;;;;;;;;;;5013753;28;20112;-61
2024/01/22 05:52:46;;;;;;;0.30;0.30;;;;;;;;;;5013378;28;20058;-61
2024/01/22 05:55:13;;;;;;;0.40;0.40;;;;;;;;;;5014047;28;20034;-62
2024/01/22 05:57:39;;;;;;;1.00;0.50;;;;;;;;;;5012272;28;20029;-60
2024/01/22 06:00:09;;;;;;;1.55;0.52;;;;;;;;;;5014853;28;20037;-61
2024/01/22 06:02:35;;;;;;;1.02;0.50;;;;;;;;;;5009966;28;20063;-62
2024/01/22 06:05:02;;;;;;;1.00;0.60;;;;;;;;;;5012183;28;20026;-60
2024/01/22 06:07:27;;;;;;;0.70;0.45;;;;;;;;;;5005367;28;20536;-61
2024/01/22 06:09:53;;;;;;;2.42;0.60;;;;;;;;;;5016964;28;20058;-61
2024/01/22 06:12:19;;;;;;;1.95;0.40;;;;;;;;;;5019651;28;20508;-62
2024/01/22 06:14:45;;;;;;;0.45;0.40;;;;;;;;;;5021916;28;20371;-62
2024/01/22 06:17:11;;;;;;;3.60;0.30;;;;;;;;;;5013424;28;20433;-61
2024/01/22 06:19:37;;;;;;;0.38;0.32;;;;;;;;;;5005307;28;20485;-61
2024/01/22 06:22:03;;;;;;;1.52;0.32;;;;;;;;;;5003981;28;20034;-60
2024/01/22 06:24:29;;;;;;;0.40;0.40;;;;;;;;;;5014556;28;20530;-62
2024/01/22 06:26:55;;;;;;;1.15;0.50;;;;;;;;;;5012324;28;20022;-61
2024/01/22 06:29:21;;;;;;;1.27;0.50;;;;;;;;;;5014948;28;20037;-61
2024/01/22 06:31:47;;;;;;;0.40;0.30;;;;;;;;;;5007584;28;20034;-62
2024/01/22 06:34:13;;;;;;;1.30;0.47;;;;;;;;;;5010631;28;20068;-64
2024/01/22 06:36:39;;;;;;;2.75;0.40;;;;;;;;;;5011013;28;20508;-61
2024/01/22 06:39:08;;;;;;;0.88;0.40;;;;;;;;;;5011424;28;20485;-63
2024/01/22 06:41:33;;;;;;;1.92;0.60;;;;;;;;;;5007796;28;20032;-64
2024/01/22 06:43:59;;;;;;;1.73;0.38;;;;;;;;;;5021292;28;20018;-63
2024/01/22 06:46:25;;;;;;;0.40;0.40;;;;;;;;;;5008533;28;20034;-62
2024/01/22 06:48:51;;;;;;;0.38;0.38;;;;;;;;;;5008457;28;20022;-62
2024/01/22 06:51:17;;;;;;;0.90;0.45;;;;;;;;;;5010390;28;20025;-62
2024/01/22 06:53:44;;;;;;;0.68;0.30;;;;;;;;;;5014436;28;20018;-62
2024/01/22 06:56:10;;;;;;;2.60;0.40;;;;;;;;;;5009966;28;21250;-61
2024/01/22 06:58:36;;;;;;;1.63;0.30;;;;;;;;;;5011556;28;20100;-61
2024/01/22 07:01:04;;;;;;;3.90;0.45;;;;;;;;;;5009376;28;20061;-61
2024/01/22 07:03:30;;;;;;;2.15;0.30;;;;;;;;;;5006680;28;20048;-61
2024/01/22 07:05:56;;;;;;;1.75;0.45;;;;;;;;;;5013185;28;20053;-60
2024/01/22 07:08:22;;;;;;;0.95;0.47;;;;;;;;;;5013126;28;20502;-63
2024/01/22 07:10:51;;;;;;;0.40;0.40;;;;;;;;;;5007873;28;20029;-61
2024/01/22 07:13:17;;;;;;;1.58;0.40;;;;;;;;;;5009663;28;20084;-61
2024/01/22 07:15:43;;;;;;;0.75;0.40;;;;;;;;;;5015797;28;20025;-61
2024/01/22 07:18:09;;;;;;;0.88;0.40;;;;;;;;;;5008894;28;20036;-62
2024/01/22 07:20:35;;;;;;;0.90;0.30;;;;;;;;;;5014742;28;20030;-61
2024/01/22 07:23:01;;;;;;;3.65;0.40;;;;;;;;;;5015855;28;20034;-61
2024/01/22 07:25:29;;;;;;;0.38;0.30;;;;;;;;;;5017015;28;20022;-59
2024/01/22 07:27:55;;;;;;;2.67;0.40;;;;;;;;;;5013023;28;20503;-61
2024/01/22 07:30:21;;;;;;;1.10;0.70;;;;;;;;;;5009973;28;20045;-63
2024/01/22 07:32:47;;;;;;;1.52;0.45;;;;;;;;;;5010275;28;20451;-60
2024/01/22 07:35:13;;;;;;;0.52;0.30;;;;;;;;;;5011546;28;20026;-61
2024/01/22 07:37:47;;;;;;;0.65;0.40;;;;;;;;;;5011872;28;20121;-61
2024/01/22 07:40:13;;;;;;;1.00;0.43;;;;;;;;;;5012652;28;20036;-63
2024/01/22 07:42:40;;;;;;;0.98;0.60;;;;;;;;;;5005279;28;20080;-62
2024/01/22 07:45:06;;;;;;;1.30;0.30;;;;;;;;;;5016291;28;20022;-59
2024/01/22 07:47:35;;;;;;;0.80;0.40;;;;;;;;;;5009904;28;20388;-62
2024/01/22 07:50:03;;;;;;;1.20;0.40;;;;;;;;;;5008087;28;20574;-62
2024/01/22 07:52:29;;;;;;;1.60;0.40;;;;;;;;;;5009549;28;20736;-62
2024/01/22 07:54:55;;;;;;;0.95;0.50;;;;;;;;;;5008927;28;20655;-62
2024/01/22 07:57:21;;;;;;;0.40;0.40;;;;;;;;;;5013541;28;20029;-63
2024/01/22 07:59:47;;;;;;;2.30;0.45;;;;;;;;;;5011726;28;20506;-61
2024/01/22 08:02:13;;;;;;;0.38;0.30;;;;;;;;;;5013928;28;20491;-60
2024/01/22 08:04:39;;;;;;;0.40;0.32;;;;;;;;;;5006610;28;20476;-60
2024/01/22 08:07:06;;;;;;;1.45;0.30;;;;;;;;;;5005111;28;20029;-60
2024/01/22 08:09:32;;;;;;;5.25;0.40;;;;;;;;;;5008165;28;20026;-59
2024/01/22 08:11:58;;;;;;;0.77;0.40;;;;;;;;;;5007168;28;20106;-63
2024/01/22 08:14:24;;;;;;;1.23;0.40;;;;;;;;;;5005841;28;20106;-61
2024/01/22 08:16:51;;;;;;;0.40;0.40;;;;;;;;;;5006164;28;20041;-62
2024/01/22 08:19:17;;;;;;;0.40;0.40;;;;;;;;;;5003833;28;20028;-62
2024/01/22 08:21:43;;;;;;;0.60;0.60;;;;;;;;;;5004746;28;20030;-62
2024/01/22 08:24:09;;;;;;;0.95;0.28;;;;;;;;;;5004981;28;20041;-61
2024/01/22 08:26:35;;;;;;;0.95;0.20;;;;;;;;;;5007620;28;20072;-62
2024/01/22 08:29:01;;;;;;;0.40;0.20;;;;;;;;;;5008855;28;20104;-57
2024/01/22 08:31:27;;;;;;;2.40;0.30;;;;;;;;;;5009322;28;20026;-60
2024/01/22 08:33:54;;;;;;;0.80;0.47;;;;;;;;;;5014989;28;20022;-61
2024/01/22 08:36:20;;;;;;;0.95;0.35;;;;;;;;;;5011969;28;20070;-60
2024/01/22 08:38:46;;;;;;;7.88;0.57;;;;;;;;;;5010087;28;20117;-62
2024/01/22 08:41:12;;;;;;;0.95;0.30;;;;;;;;;;5018735;28;20108;-61
2024/01/22 08:43:38;;;;;;;1.08;0.38;;;;;;;;;;5009141;28;20022;-61
2024/01/22 08:46:04;;;;;;;3.15;0.50;;;;;;;;;;5006948;28;20045;-61
2024/01/22 08:48:33;;;;;;;0.88;0.55;;;;;;;;;;5008292;28;20026;-61
2024/01/22 08:50:59;;;;;;;1.25;0.50;;;;;;;;;;5012108;28;20092;-61
2024/01/22 08:53:25;;;;;;;1.63;0.50;;;;;;;;;;5010422;28;20030;-62
2024/01/22 08:55:51;;;;;;;0.80;0.47;;;;;;;;;;5012809;28;20484;-61
2024/01/22 08:58:17;;;;;;;0.40;0.38;;;;;;;;;;5009567;28;20053;-61
2024/01/22 09:00:43;;;;;;;0.63;0.45;;;;;;;;;;5009368;28;20080;-61
2024/01/22 09:03:09;;;;;;;2.03;0.40;;;;;;;;;;5007575;28;20030;-61
2024/01/22 09:05:35;;;;;;;1.25;0.57;;;;;;;;;;5012567;28;20041;-61
2024/01/22 09:08:01;;;;;;;0.70;0.50;;;;;;;;;;5013218;28;20022;-63
2024/01/22 09:10:27;;;;;;;2.05;0.63;;;;;;;;;;5012481;28;20109;-63
2024/01/22 09:12:53;;;;;;;0.60;0.43;;;;;;;;;;5012360;28;20038;-62
2024/01/22 09:15:19;;;;;;;0.98;0.70;;;;;;;;;;5011513;28;20500;-59
2024/01/22 09:17:46;;;;;;;2.80;1.25;;;;;;;;;;5012120;28;20072;-60
2024/01/22 09:20:12;;;;;;;5.22;0.80;;;;;;;;;;5009784;28;20124;-60
2024/01/22 09:22:38;;;;;;;1.75;0.80;;;;;;;;;;5012182;28;20029;-60
2024/01/22 09:25:05;;;;;;;7.07;1.30;;;;;;;;;;5014120;28;20114;-61
2024/01/22 09:27:31;;;;;;;3.00;1.05;;;;;;;;;;5011605;28;20437;-62
2024/01/22 09:29:58;;;;;;;10.73;1.20;;;;;;;;;;5008505;28;20547;-59
2024/01/22 09:32:27;;;;;;;4.78;0.90;;;;;;;;;;5015663;28;20465;-60
2024/01/22 09:34:53;;;;;;;10.30;1.30;;;;;;;;;;5008219;28;20030;-60
2024/01/22 09:37:19;;;;;;;9.50;1.05;;;;;;;;;;5011084;28;20034;-63
2024/01/22 09:39:45;;;;;;;11.13;1.60;;;;;;;;;;5010573;28;20121;-63
2024/01/22 09:42:14;;;;;;;9.40;1.33;;;;;;;;;;5011580;28;20041;-63
2024/01/22 09:44:45;;;;;;;9.00;2.22;;;;;;;;;;5010213;28;20113;-61
2024/01/22 09:47:12;;;;;;;8.85;1.50;;;;;;;;;;5011133;28;20495;-64
2024/01/22 09:49:38;;;;;;;10.65;1.30;;;;;;;;;;5016083;28;20040;-62
2024/01/22 09:52:04;;;;;;;8.70;1.60;;;;;;;;;;5011689;28;20072;-63
2024/01/22 09:54:31;;;;;;;8.98;1.52;;;;;;;;;;5011406;28;20034;-62
2024/01/22 09:57:02;;;;;;;6.03;1.48;;;;;;;;;;5013083;28;20061;-61
2024/01/22 09:59:29;;;;;;;10.73;1.38;;;;;;;;;;5011056;28;20048;-63
2024/01/22 10:01:56;;;;;;;15.02;2.40;;;;;;;;;;5011179;28;20018;-62
2024/01/22 10:04:26;;;;;;;5.32;1.30;;;;;;;;;;5012415;28;20500;-61
2024/01/22 10:06:52;;;;;;;9.27;0.93;;;;;;;;;;5011953;28;20068;-63
2024/01/22 10:09:18;;;;;;;9.05;1.27;;;;;;;;;;5012851;28;20155;-61
2024/01/22 10:11:47;;;;;;;6.25;1.20;;;;;;;;;;5010862;28;20117;-61
2024/01/22 10:14:13;;;;;;;3.78;0.73;;;;;;;;;;5010746;28;20491;-61
2024/01/22 10:16:39;;;;;;;5.53;1.00;;;;;;;;;;5015037;28;20104;-61
2024/01/22 10:19:07;;;;;;;1.63;0.65;;;;;;;;;;5015009;28;20037;-64
2024/01/22 10:21:34;;;;;;;4.72;0.70;;;;;;;;;;5011994;28;20053;-59
2024/01/22 10:24:01;;;;;;;1.52;0.60;;;;;;;;;;5009194;28;20026;-63
2024/01/22 10:26:27;;;;;;;1.13;0.50;;;;;;;;;;5014113;28;20109;-60
2024/01/22 10:28:53;;;;;;;0.57;0.30;;;;;;;;;;5011598;28;20029;-61
2024/01/22 10:31:19;;;;;;;0.65;0.40;;;;;;;;;;5012281;28;20029;-57
2024/01/22 10:33:46;;;;;;;0.30;0.30;;;;;;;;;;5010415;28;20029;-60
2024/01/22 10:36:15;;;;;;;1.00;0.40;;;;;;;;;;5013915;28;20033;-61
2024/01/22 10:38:41;;;;;;;1.17;0.68;;;;;;;;;;5010122;28;20014;-59
2024/01/22 10:41:16;;;;;;;0.52;0.30;;;;;;;;;;5013328;28;20056;-61
2024/01/22 10:43:43;;;;;;;1.40;0.40;;;;;;;;;;5008068;28;20791;-60
2024/01/22 10:46:11;;;;;;;0.73;0.20;;;;;;;;;;5014906;28;20092;-62
2024/01/22 10:48:37;;;;;;;0.43;0.32;;;;;;;;;;5007761;28;20028;-62
2024/01/22 10:51:04;;;;;;;0.90;0.40;;;;;;;;;;5015341;28;20101;-62
2024/01/22 10:53:31;;;;;;;1.58;0.30;;;;;;;;;;5007367;28;20108;-60
2024/01/22 10:55:59;;;;;;;1.02;0.30;;;;;;;;;;5013477;28;20033;-61
2024/01/22 10:58:28;;;;;;;0.20;0.20;;;;;;;;;;5010336;28;20504;-61
2024/01/22 11:00:57;;;;;;;0.35;0.35;;;;;;;;;;5012929;28;20029;-60
2024/01/22 11:03:26;;;;;;;0.80;0.30;;;;;;;;;;5009239;28;20042;-62
2024/01/22 11:05:56;;;;;;;1.52;0.30;;;;;;;;;;5012122;28;20029;-61
2024/01/22 11:08:22;;;;;;;2.55;0.30;;;;;;;;;;5010164;28;20522;-63
2024/01/22 11:10:50;;;;;;;3.60;0.52;;;;;;;;;;5011971;28;20022;-61
2024/01/22 11:13:17;;;;;;;3.45;0.57;;;;;;;;;;5009057;28;20040;-60
2024/01/22 11:15:43;;;;;;;0.50;0.32;;;;;;;;;;5009161;28;20127;-60
2024/01/22 11:18:10;;;;;;;0.40;0.40;;;;;;;;;;5011751;28;20041;-58
2024/01/22 11:20:37;;;;;;;0.40;0.30;;;;;;;;;;5011229;28;20022;-61
2024/01/22 11:23:04;;;;;;;0.35;0.30;;;;;;;;;;5014071;28;20036;-57
2024/01/22 11:25:34;;;;;;;1.20;0.38;;;;;;;;;;5010267;28;20022;-63
2024/01/22 11:28:03;;;;;;;0.82;0.30;;;;;;;;;;5025381;28;20141;-60
2024/01/22 11:30:33;;;;;;;1.23;0.30;;;;;;;;;;5009528;28;20488;-61
2024/01/22 11:32:59;;;;;;;1.55;0.60;;;;;;;;;;5012688;28;20467;-64
2024/01/22 11:35:32;;;;;;;0.30;0.30;;;;;;;;;;5011823;28;20057;-59
2024/01/22 11:37:58;;;;;;;0.40;0.37;;;;;;;;;;5013902;28;20063;-62
2024/01/22 11:40:43;;;;;;;0.45;0.45;;;;;;;;;;5008671;28;20283;-61
2024/01/22 11:43:09;;;;;;;0.47;0.30;;;;;;;;;;5029040;28;20040;-58
2024/01/22 11:45:35;;;;;;;1.40;0.68;;;;;;;;;;5010701;28;20377;-61
2024/01/22 11:48:01;;;;;;;1.00;0.40;;;;;;;;;;5015510;28;20061;-61
2024/01/22 11:50:27;;;;;;;0.25;0.20;;;;;;;;;;5010058;28;20038;-60
2024/01/22 11:52:59;;;;;;;2.17;0.30;;;;;;;;;;5011909;28;20088;-60
2024/01/22 11:55:25;;;;;;;0.50;0.30;;;;;;;;;;5005284;28;20076;-58
2024/01/22 11:57:51;;;;;;;0.35;0.25;;;;;;;;;;5009535;28;20038;-60
2024/01/22 12:00:22;;;;;;;1.65;0.40;;;;;;;;;;5013860;28;20037;-59
2024/01/22 12:02:50;;;;;;;3.63;0.80;;;;;;;;;;5010300;28;20508;-61
2024/01/22 12:05:17;;;;;;;1.55;0.45;;;;;;;;;;5010392;28;20117;-61
2024/01/22 12:07:44;;;;;;;2.03;1.00;;;;;;;;;;5014779;28;20080;-60
2024/01/22 12:10:29;;;;;;;2.83;0.98;;;;;;;;;;5016766;28;20028;-60
2024/01/22 12:12:56;;;;;;;5.10;0.90;;;;;;;;;;5011526;28;20088;-59
2024/01/22 12:15:23;;;;;;;2.83;1.13;;;;;;;;;;5008842;28;20084;-62
2024/01/22 12:17:49;;;;;;;7.07;1.48;;;;;;;;;;5014532;28;20100;-61
2024/01/22 12:20:16;;;;;;;5.07;1.00;;;;;;;;;;5012561;28;20036;-61
2024/01/22 12:22:42;;;;;;;4.75;0.70;;;;;;;;;;5012336;28;20029;-61
2024/01/22 12:25:09;;;;;;;9.30;1.20;;;;;;;;;;5014134;28;20389;-60
2024/01/22 12:27:35;;;;;;;7.43;0.98;;;;;;;;;;5013035;28;20535;-61
2024/01/22 12:30:01;;;;;;;14.27;1.15;;;;;;;;;;5013374;28;20104;-60
2024/01/22 12:32:27;;;;;;;5.82;0.90;;;;;;;;;;5010827;28;20034;-59
2024/01/22 12:35:00;;;;;;;7.57;1.10;;;;;;;;;;5009552;28;20101;-60
2024/01/22 12:37:30;;;;;;;6.68;0.98;;;;;;;;;;5011233;28;20057;-61
2024/01/22 12:40:06;;;;;;;17.80;1.70;;;;;;;;;;5009796;28;20044;-60
2024/01/22 12:42:32;;;;;;;5.13;1.10;;;;;;;;;;5008543;28;20034;-60
2024/01/22 12:44:58;;;;;;;8.48;1.10;;;;;;;;;;5009214;28;20025;-61
2024/01/22 12:47:25;;;;;;;5.07;1.00;;;;;;;;;;5010942;28;20021;-60
2024/01/22 12:49:52;;;;;;;10.75;1.60;;;;;;;;;;5012407;28;20022;-61
2024/01/22 12:52:18;;;;;;;8.45;1.13;;;;;;;;;;5015984;28;20487;-61
2024/01/22 12:54:44;;;;;;;7.25;1.15;;;;;;;;;;5015234;28;20536;-60
2024/01/22 12:57:10;;;;;;;9.98;1.60;;;;;;;;;;5011771;28;20115;-60
2024/01/22 12:59:36;;;;;;;9.63;1.67;;;;;;;;;;5012327;28;20099;-59
2024/01/22 13:02:02;;;;;;;12.40;2.38;;;;;;;;;;5016524;28;20400;-60
2024/01/22 13:04:28;;;;;;;10.55;1.92;;;;;;;;;;5008574;28;20483;-59
2024/01/22 13:06:54;;;;;;;7.47;1.55;;;;;;;;;;5009996;28;20485;-60
2024/01/22 13:09:20;;;;;;;11.65;1.90;;;;;;;;;;5010750;28;20026;-59
2024/01/22 13:11:47;;;;;;;13.32;1.90;;;;;;;;;;5007439;28;20454;-59
2024/01/22 13:14:13;;;;;;;14.02;2.00;;;;;;;;;;5014806;28;20048;-57
2024/01/22 13:16:39;;;;;;;11.93;1.98;;;;;;;;;;5013734;28;20480;-59
2024/01/22 13:19:05;;;;;;;13.48;1.73;;;;;;;;;;5013280;28;20030;-61
2024/01/22 13:21:31;;;;;;;15.52;2.40;;;;;;;;;;5007298;28;21561;-59
2024/01/22 13:23:57;;;;;;;10.07;2.08;;;;;;;;;;5013835;28;20109;-60
2024/01/22 13:26:23;;;;;;;19.63;2.58;;;;;;;;;;5013059;28;20096;-59
2024/01/22 13:28:49;;;;;;;19.88;2.20;;;;;;;;;;5013711;28;20054;-59
2024/01/22 13:31:15;;;;;;;18.33;2.08;;;;;;;;;;5011157;28;20026;-57
2024/01/22 13:33:41;;;;;;;12.68;2.20;;;;;;;;;;5014203;28;20029;-58
2024/01/22 13:36:08;;;;;;;11.40;2.83;;;;;;;;;;5015713;28;20030;-59
2024/01/22 13:38:35;;;;;;;4.22;1.00;;;;;;;;;;5012066;28;20104;-58
2024/01/22 13:41:02;;;;;;;3.92;0.95;;;;;;;;;;5012155;28;20022;-59
2024/01/22 13:43:28;;;;;;;9.10;1.00;;;;;;;;;;5022062;28;20033;-60
2024/01/22 13:45:54;;;;;;;5.03;1.38;;;;;;;;;;5013375;28;20022;-59
2024/01/22 13:48:23;;;;;;;8.02;1.23;;;;;;;;;;5008667;28;20030;-61
2024/01/22 13:50:51;;;;;;;4.53;1.05;;;;;;;;;;5012567;28;20041;-59
2024/01/22 13:53:17;;;;;;;7.00;1.85;;;;;;;;;;5009620;28;20026;-58
2024/01/22 13:55:43;;;;;;;6.57;2.05;;;;;;;;;;5010589;28;20084;-58
2024/01/22 13:58:10;;;;;;;7.50;1.27;;;;;;;;;;5012551;28;20033;-58
2024/01/22 14:00:38;;;;;;;5.13;0.60;;;;;;;;;;5006890;28;20026;-57
2024/01/22 14:03:05;;;;;;;6.47;1.08;;;;;;;;;;5010463;28;20030;-60
2024/01/22 14:05:31;;;;;;;2.83;0.65;;;;;;;;;;5012677;28;20034;-59
2024/01/22 14:07:57;;;;;;;7.32;0.90;;;;;;;;;;5013068;28;20014;-58
2024/01/22 14:10:23;;;;;;;7.95;1.23;;;;;;;;;;5011192;28;20506;-62
2024/01/22 14:12:49;;;;;;;9.45;2.28;;;;;;;;;;5010124;28;20033;-57
2024/01/22 14:15:15;;;;;;;12.55;1.38;;;;;;;;;;5011399;28;20053;-58
2024/01/22 14:17:41;;;;;;;9.20;1.38;;;;;;;;;;5011008;28;20038;-58
2024/01/22 14:20:07;;;;;;;11.55;1.90;;;;;;;;;;5012708;28;20026;-58
2024/01/22 14:22:34;;;;;;;13.93;1.75;;;;;;;;;;5008060;28;20092;-58
2024/01/22 14:25:00;;;;;;;9.82;1.60;;;;;;;;;;5013436;28;20084;-60
2024/01/22 14:27:26;;;;;;;12.57;2.13;;;;;;;;;;5010027;28;20029;-59
2024/01/22 14:29:52;;;;;;;10.65;1.77;;;;;;;;;;5011651;28;20030;-57
2024/01/22 14:32:18;;;;;;;16.92;2.35;;;;;;;;;;5012278;28;20116;-55
2024/01/22 14:34:44;;;;;;;16.77;2.60;;;;;;;;;;5011452;28;20033;-59
2024/01/22 14:37:10;;;;;;;16.13;2.60;;;;;;;;;;5009282;28;20042;-58